createdAt,value
2019-04-04T00:00:11.365Z,2.98
2019-04-04T00:02:40.266Z,2.80
2019-04-04T00:05:12.656Z,3.00
2019-04-04T00:07:41.728Z,2.98
2019-04-04T00:10:10.827Z,2.77
2019-04-04T00:12:40.023Z,3.05
2019-04-04T00:15:09.117Z,2.70
2019-04-04T00:17:37.999Z,3.10
2019-04-04T00:20:07.714Z,3.30
2019-04-04T00:22:36.718Z,3.30
2019-04-04T00:25:09.740Z,3.17
2019-04-04T00:27:37.049Z,2.98
2019-04-04T00:30:07.217Z,3.20
2019-04-04T00:32:36.276Z,2.90
2019-04-04T00:35:05.751Z,2.55
2019-04-04T00:37:36.499Z,2.67
2019-04-04T00:40:07.088Z,2.80
2019-04-04T00:42:36.208Z,2.70
2019-04-04T00:45:06.769Z,3.52
2019-04-04T00:47:35.873Z,3.60
2019-04-04T00:50:06.836Z,3.30
2019-04-04T00:52:35.895Z,3.37
2019-04-04T00:55:06.734Z,3.15
2019-04-04T00:57:35.934Z,2.98
2019-04-04T01:00:06.951Z,2.80
2019-04-04T01:02:37.475Z,2.83
2019-04-04T01:05:07.699Z,3.10
2019-04-04T01:07:36.700Z,3.50
2019-04-04T01:10:07.520Z,3.30
2019-04-04T01:12:55.890Z,2.90
2019-04-04T01:15:24.776Z,3.08
2019-04-04T01:17:53.874Z,3.20
2019-04-04T01:20:23.084Z,3.40
2019-04-04T01:22:52.280Z,3.42
2019-04-04T01:25:22.905Z,3.50
2019-04-04T01:27:51.861Z,3.37
2019-04-04T01:30:21.095Z,2.95
2019-04-04T01:32:50.085Z,2.60
2019-04-04T01:35:22.532Z,2.90
2019-04-04T01:37:49.807Z,2.92
2019-04-04T01:40:18.600Z,3.30
2019-04-04T01:42:47.548Z,3.20
2019-04-04T01:45:16.485Z,2.85
2019-04-04T01:47:45.950Z,3.62
2019-04-04T01:50:16.000Z,2.70
2019-04-04T01:52:44.981Z,2.95
2019-04-04T01:55:13.907Z,2.90
2019-04-04T01:57:42.881Z,2.72
2019-04-04T02:00:15.248Z,3.62
2019-04-04T02:02:43.731Z,3.17
2019-04-04T02:05:32.080Z,3.22
2019-04-04T02:08:01.482Z,3.37
2019-04-04T02:10:30.449Z,2.75
2019-04-04T02:12:59.483Z,2.90
2019-04-04T02:15:28.562Z,3.47
2019-04-04T02:17:57.650Z,3.17
2019-04-04T02:20:26.867Z,3.27
2019-04-04T02:22:56.791Z,3.40
2019-04-04T02:25:25.787Z,2.90
2019-04-04T02:27:54.765Z,2.70
2019-04-04T02:30:25.524Z,2.58
2019-04-04T02:32:59.431Z,2.80
2019-04-04T02:35:25.222Z,2.90
2019-04-04T02:37:55.544Z,3.00
2019-04-04T02:40:24.851Z,2.92
2019-04-04T02:42:55.213Z,2.95
2019-04-04T02:45:25.425Z,2.62
2019-04-04T02:48:15.637Z,3.12
2019-04-04T02:50:44.785Z,3.27
2019-04-04T02:53:13.770Z,3.37
2019-04-04T02:56:03.237Z,3.47
2019-04-04T02:58:32.749Z,3.05
2019-04-04T03:01:01.848Z,3.15
2019-04-04T03:03:30.948Z,3.08
2019-04-04T03:06:00.131Z,3.58
2019-04-04T03:08:29.127Z,3.30
2019-04-04T03:10:58.437Z,3.45
2019-04-04T03:13:31.285Z,3.17
2019-04-04T03:15:57.837Z,3.30
2019-04-04T03:18:26.976Z,3.27
2019-04-04T03:20:56.129Z,2.70
2019-04-04T03:23:24.997Z,3.02
2019-04-04T03:25:54.028Z,3.58
2019-04-04T03:28:23.034Z,3.30
2019-04-04T03:31:01.379Z,3.22
2019-04-04T03:33:29.284Z,2.92
2019-04-04T03:35:53.073Z,3.22
2019-04-04T03:38:22.181Z,3.08
2019-04-04T03:40:51.250Z,3.05
2019-04-04T03:43:20.252Z,3.55
2019-04-04T03:45:49.223Z,3.80
2019-04-04T03:48:18.785Z,3.62
2019-04-04T03:50:47.944Z,3.47
2019-04-04T03:53:17.863Z,3.87
2019-04-04T03:55:47.074Z,3.17
2019-04-04T03:58:16.063Z,3.70
2019-04-04T04:00:45.349Z,3.52
2019-04-04T04:03:14.554Z,3.50
2019-04-04T04:05:43.543Z,3.30
2019-04-04T04:08:12.424Z,2.92
2019-04-04T04:10:41.526Z,3.47
2019-04-04T04:13:10.414Z,3.90
2019-04-04T04:15:39.412Z,3.42
2019-04-04T04:18:08.303Z,3.83
2019-04-04T04:20:37.897Z,3.58
2019-04-04T04:23:07.218Z,3.52
2019-04-04T04:25:36.903Z,3.22
2019-04-04T04:28:06.135Z,3.60
2019-04-04T04:30:39.377Z,3.00
2019-04-04T04:33:05.950Z,2.98
2019-04-04T04:35:34.827Z,2.65
2019-04-04T04:38:03.839Z,2.60
2019-04-04T04:40:32.915Z,7.10
2019-04-04T04:43:01.908Z,6.90
2019-04-04T04:45:30.808Z,6.30
2019-04-04T04:47:59.877Z,6.53
2019-04-04T04:50:28.786Z,7.10
2019-04-04T04:52:57.688Z,7.28
2019-04-04T04:55:27.355Z,5.90
2019-04-04T04:57:57.239Z,7.08
2019-04-04T05:00:27.690Z,7.10
2019-04-04T05:02:56.927Z,11.20
2019-04-04T05:05:25.941Z,10.43
2019-04-04T05:07:55.098Z,5.28
2019-04-04T05:10:24.541Z,4.78
2019-04-04T05:12:53.780Z,4.83
2019-04-04T05:15:22.912Z,4.95
2019-04-04T05:17:52.023Z,3.77
2019-04-04T05:20:21.014Z,3.25
2019-04-04T05:22:49.800Z,3.80
2019-04-04T05:25:18.993Z,4.33
2019-04-04T05:27:48.092Z,3.65
2019-04-04T05:30:20.154Z,3.90
2019-04-04T05:32:48.004Z,3.45
2019-04-04T05:35:17.082Z,3.67
2019-04-04T05:37:46.343Z,3.50
2019-04-04T05:40:15.820Z,4.10
2019-04-04T05:42:44.809Z,4.85
2019-04-04T05:45:15.002Z,3.37
2019-04-04T05:47:44.230Z,3.35
2019-04-04T05:50:16.200Z,4.75
2019-04-04T05:52:43.951Z,3.58
2019-04-04T05:55:13.116Z,3.30
2019-04-04T05:57:42.141Z,3.52
2019-04-04T06:00:12.979Z,3.40
2019-04-04T06:02:43.294Z,3.83
2019-04-04T06:05:12.681Z,4.37
2019-04-04T06:07:41.593Z,6.08
2019-04-04T06:10:12.131Z,6.25
2019-04-04T06:12:41.433Z,7.40
2019-04-04T06:15:10.625Z,6.50
2019-04-04T06:20:27.458Z,5.40
2019-04-04T06:22:56.315Z,5.47
2019-04-04T06:25:25.344Z,5.75
2019-04-04T06:27:54.242Z,5.40
2019-04-04T06:30:23.212Z,5.30
2019-04-04T06:32:52.327Z,5.28
2019-04-04T06:35:21.524Z,5.42
2019-04-04T06:37:51.447Z,5.03
2019-04-04T06:40:21.250Z,5.97
2019-04-04T06:42:50.448Z,5.67
2019-04-04T06:45:19.440Z,5.70
2019-04-04T06:47:48.429Z,6.10
2019-04-04T06:50:18.447Z,6.15
2019-04-04T06:52:48.306Z,5.40
2019-04-04T06:55:17.859Z,5.72
2019-04-04T06:57:47.986Z,5.90
2019-04-04T07:00:17.827Z,5.05
2019-04-04T07:02:47.467Z,5.28
2019-04-04T07:05:16.883Z,5.47
2019-04-04T07:07:46.003Z,6.00
2019-04-04T07:10:15.071Z,5.80
2019-04-04T07:12:44.192Z,5.15
2019-04-04T07:15:15.725Z,5.28
2019-04-04T07:17:43.911Z,5.73
2019-04-04T07:20:16.677Z,5.65
2019-04-04T07:22:43.947Z,6.40
2019-04-04T07:25:12.834Z,5.42
2019-04-04T07:27:41.947Z,5.22
2019-04-04T07:30:11.126Z,5.60
2019-04-04T07:32:41.611Z,5.60
2019-04-04T07:35:11.164Z,5.20
2019-04-04T07:37:40.053Z,5.70
2019-04-04T07:40:08.947Z,5.42
2019-04-04T07:42:40.128Z,5.20
2019-04-04T07:45:09.070Z,5.60
2019-04-04T07:47:37.965Z,4.87
2019-04-04T07:50:07.369Z,5.90
2019-04-04T07:52:36.377Z,5.22
2019-04-04T07:55:05.872Z,4.75
2019-04-04T07:57:35.084Z,4.50
2019-04-04T08:00:05.847Z,4.40
2019-04-04T08:02:34.922Z,5.28
2019-04-04T08:05:04.600Z,4.90
2019-04-04T08:07:33.813Z,5.27
2019-04-04T08:10:02.813Z,4.80
2019-04-04T08:12:31.697Z,5.45
2019-04-04T08:15:00.684Z,4.60
2019-04-04T08:17:29.570Z,4.50
2019-04-04T08:19:59.985Z,5.75
2019-04-04T08:22:29.412Z,4.58
2019-04-04T08:24:58.264Z,4.80
2019-04-04T08:27:27.507Z,4.95
2019-04-04T08:29:56.497Z,4.70
2019-04-04T08:32:25.378Z,4.53
2019-04-04T08:34:54.448Z,3.50
2019-04-04T08:37:23.455Z,4.87
2019-04-04T08:39:52.770Z,4.63
2019-04-04T08:42:21.867Z,4.73
2019-04-04T08:44:50.966Z,4.78
2019-04-04T08:47:19.835Z,5.17
2019-04-04T08:49:49.048Z,5.20
2019-04-04T08:52:20.653Z,4.67
2019-04-04T08:54:48.663Z,4.72
2019-04-04T08:57:17.872Z,5.30
2019-04-04T08:59:48.187Z,4.87
2019-04-04T09:02:17.179Z,4.72
2019-04-04T09:04:46.282Z,4.60
2019-04-04T09:07:15.159Z,4.80
2019-04-04T09:09:45.213Z,4.60
2019-04-04T09:12:14.493Z,4.20
2019-04-04T09:14:43.375Z,5.07
2019-04-04T09:17:12.261Z,4.97
2019-04-04T09:19:41.331Z,5.62
2019-04-04T09:22:10.973Z,4.77
2019-04-04T09:24:40.167Z,4.67
2019-04-04T09:27:09.232Z,4.60
2019-04-04T09:29:38.269Z,4.77
2019-04-04T09:32:07.104Z,4.80
2019-04-04T09:34:36.435Z,4.17
2019-04-04T09:37:08.484Z,4.47
2019-04-04T09:39:35.977Z,4.60
2019-04-04T09:42:05.256Z,4.80
2019-04-04T09:44:34.267Z,4.53
2019-04-04T09:47:05.600Z,4.78
2019-04-04T09:49:53.138Z,4.77
2019-04-04T09:52:22.230Z,4.47
2019-04-04T09:54:51.217Z,4.28
2019-04-04T09:57:20.636Z,4.20
2019-04-04T09:59:51.622Z,4.20
2019-04-04T10:02:20.243Z,4.37
2019-04-04T10:04:49.244Z,3.80
2019-04-04T10:07:18.100Z,4.70
2019-04-04T10:09:47.124Z,4.20
2019-04-04T10:12:16.219Z,3.52
2019-04-04T10:14:45.111Z,3.42
2019-04-04T10:17:14.108Z,4.90
2019-04-04T10:19:43.303Z,2.83
2019-04-04T10:22:12.306Z,4.05
2019-04-04T10:27:11.518Z,4.53
2019-04-04T10:29:40.404Z,3.52
2019-04-04T10:32:09.384Z,4.87
2019-04-04T10:34:38.635Z,3.55
2019-04-04T10:37:07.687Z,3.62
2019-04-04T10:39:36.567Z,3.87
2019-04-04T10:42:05.677Z,4.40
2019-04-04T10:44:37.063Z,4.60
2019-04-04T10:47:06.067Z,3.67
2019-04-04T10:49:34.998Z,3.27
2019-04-04T10:52:03.874Z,3.80
2019-04-04T10:54:33.012Z,3.60
2019-04-04T10:57:02.100Z,3.62
2019-04-04T10:59:31.210Z,4.10
2019-04-04T11:02:00.954Z,3.37
2019-04-04T11:04:30.305Z,4.60
2019-04-04T11:06:59.296Z,5.28
2019-04-04T11:09:40.885Z,3.58
2019-04-04T11:11:58.912Z,4.37
2019-04-04T11:14:27.801Z,4.17
2019-04-04T11:16:56.797Z,4.12
2019-04-04T11:19:31.297Z,4.75
2019-04-04T11:21:56.417Z,4.90
2019-04-04T11:24:25.406Z,4.47
2019-04-04T11:26:55.013Z,5.08
2019-04-04T11:29:23.905Z,3.92
2019-04-04T11:31:52.895Z,4.17
2019-04-04T11:34:21.907Z,4.37
2019-04-04T11:36:50.899Z,3.95
2019-04-04T11:39:19.780Z,4.10
2019-04-04T11:41:48.977Z,4.20
2019-04-04T11:44:18.179Z,4.78
2019-04-04T11:46:47.275Z,4.75
2019-04-04T11:49:16.472Z,5.60
2019-04-04T11:51:45.351Z,4.85
2019-04-04T11:54:14.462Z,5.43
2019-04-04T11:56:43.562Z,4.92
2019-04-04T11:59:13.503Z,4.05
2019-04-04T12:01:44.091Z,3.70
2019-04-04T12:04:13.186Z,3.55
2019-04-04T12:06:42.182Z,3.27
2019-04-04T12:09:11.154Z,3.92
2019-04-04T12:11:40.272Z,3.85
2019-04-04T12:14:09.231Z,3.77
2019-04-04T12:16:38.125Z,3.67
2019-04-04T12:19:07.034Z,4.12
2019-04-04T12:21:36.040Z,3.72
2019-04-04T12:24:04.978Z,4.33
2019-04-04T12:26:33.994Z,4.10
2019-04-04T12:29:02.756Z,3.52
2019-04-04T12:31:31.595Z,4.47
2019-04-04T12:34:02.295Z,4.70
2019-04-04T12:36:31.297Z,3.90
2019-04-04T12:39:00.208Z,3.75
2019-04-04T12:41:29.212Z,3.80
2019-04-04T12:43:58.101Z,4.37
2019-04-04T12:46:26.950Z,3.40
2019-04-04T12:48:55.950Z,3.12
2019-04-04T12:51:24.842Z,3.50
2019-04-04T12:53:53.660Z,3.22
2019-04-04T12:56:22.855Z,4.22
2019-04-04T12:58:53.565Z,4.00
2019-04-04T13:01:22.353Z,4.10
2019-04-04T13:03:51.481Z,4.33
2019-04-04T13:06:20.265Z,4.08
2019-04-04T13:08:49.041Z,4.65
2019-04-04T13:11:18.004Z,4.47
2019-04-04T13:13:46.793Z,4.55
2019-04-04T13:16:15.584Z,4.22
2019-04-04T13:18:44.609Z,4.20
2019-04-04T13:21:13.504Z,4.30
2019-04-04T13:23:42.285Z,4.85
2019-04-04T13:26:11.390Z,4.62
2019-04-04T13:28:40.280Z,4.08
2019-04-04T13:31:09.277Z,4.05
2019-04-04T13:33:38.480Z,5.00
2019-04-04T13:36:07.480Z,4.47
2019-04-04T13:38:36.365Z,4.10
2019-04-04T13:41:05.775Z,4.40
2019-04-04T13:43:34.871Z,4.12
2019-04-04T13:46:03.719Z,4.10
2019-04-04T13:48:32.729Z,3.90
2019-04-04T13:51:01.602Z,3.00
2019-04-04T13:53:30.511Z,3.70
2019-04-04T13:55:59.510Z,4.62
2019-04-04T13:58:28.502Z,4.80
2019-04-04T14:00:57.283Z,4.42
2019-04-04T14:03:26.282Z,4.33
2019-04-04T14:05:55.062Z,4.53
2019-04-04T14:08:23.855Z,4.22
2019-04-04T14:10:58.314Z,3.92
2019-04-04T14:13:26.056Z,5.60
2019-04-04T14:15:54.227Z,5.00
2019-04-04T14:18:23.627Z,5.00
2019-04-04T14:21:03.538Z,5.50
2019-04-04T14:23:26.728Z,4.80
2019-04-04T14:25:59.438Z,4.37
2019-04-04T14:28:28.332Z,4.87
2019-04-04T14:30:57.186Z,5.20
2019-04-04T14:33:26.397Z,4.97
2019-04-04T14:35:55.493Z,5.20
2019-04-04T14:38:24.349Z,5.30
2019-04-04T14:41:12.823Z,5.03
2019-04-04T14:43:42.033Z,5.58
2019-04-04T14:46:10.904Z,6.08
2019-04-04T14:48:42.181Z,6.25
2019-04-04T14:51:10.532Z,5.15
2019-04-04T14:53:39.532Z,4.97
2019-04-04T14:56:08.523Z,4.03
2019-04-04T14:58:38.542Z,4.20
2019-04-04T15:01:19.511Z,4.80
2019-04-04T15:03:38.268Z,4.70
2019-04-04T15:06:07.252Z,5.95
2019-04-04T15:08:36.252Z,5.00
2019-04-04T15:11:05.348Z,5.60
2019-04-04T15:13:34.437Z,5.30
2019-04-04T15:16:14.702Z,4.83
2019-04-04T15:18:43.935Z,5.40
2019-04-04T15:21:13.193Z,5.12
2019-04-04T15:23:42.191Z,4.83
2019-04-04T15:26:11.402Z,5.47
2019-04-04T15:28:40.390Z,5.67
2019-04-04T15:31:09.581Z,4.90
2019-04-04T15:33:38.583Z,4.90
2019-04-04T15:36:07.681Z,4.35
2019-04-04T15:38:37.697Z,4.75
2019-04-04T15:41:06.902Z,5.17
2019-04-04T15:43:37.421Z,4.83
2019-04-04T15:46:06.525Z,4.80
2019-04-04T15:48:35.622Z,4.15
2019-04-04T15:51:04.801Z,4.55
2019-04-04T15:53:33.901Z,3.65
2019-04-04T15:56:03.010Z,3.35
2019-04-04T15:58:31.990Z,3.67
2019-04-04T16:01:01.400Z,3.52
2019-04-04T16:03:30.601Z,4.10
2019-04-04T16:05:59.785Z,3.50
2019-04-04T16:08:28.777Z,3.80
2019-04-04T16:10:59.743Z,3.70
2019-04-04T16:13:28.408Z,3.77
2019-04-04T16:15:57.488Z,3.47
2019-04-04T16:18:26.501Z,3.62
2019-04-04T16:20:55.482Z,3.58
2019-04-04T16:23:24.790Z,4.17
2019-04-04T16:25:55.407Z,3.58
2019-04-04T16:28:24.547Z,4.00
2019-04-04T16:30:53.941Z,3.40
2019-04-04T16:33:23.008Z,3.47
2019-04-04T16:35:52.107Z,3.72
2019-04-04T16:38:22.891Z,3.42
2019-04-04T16:40:52.048Z,5.20
2019-04-04T16:43:21.028Z,3.55
2019-04-04T16:45:50.228Z,4.25
2019-04-04T16:48:19.219Z,4.90
2019-04-04T16:50:48.308Z,3.95
2019-04-04T16:53:17.509Z,4.78
2019-04-04T16:55:46.605Z,4.22
2019-04-04T16:58:15.707Z,5.42
2019-04-04T17:00:45.009Z,6.58
2019-04-04T17:03:14.225Z,8.83
2019-04-04T17:05:44.329Z,6.78
2019-04-04T17:08:13.412Z,6.90
2019-04-04T17:10:42.399Z,7.65
2019-04-04T17:13:11.513Z,7.42
2019-04-04T17:15:40.542Z,8.68
2019-04-04T17:18:09.693Z,8.78
2019-04-04T17:20:39.083Z,8.00
2019-04-04T17:23:08.211Z,8.75
2019-04-04T17:25:37.611Z,7.87
2019-04-04T17:28:06.792Z,7.60
2019-04-04T17:30:35.852Z,7.15
2019-04-04T17:33:04.968Z,9.33
2019-04-04T17:35:34.174Z,7.42
2019-04-04T17:38:03.173Z,6.97
2019-04-04T17:40:32.264Z,7.87
2019-04-04T17:43:01.471Z,10.08
2019-04-04T17:45:31.171Z,9.50
2019-04-04T17:48:00.359Z,6.97
2019-04-04T17:50:30.113Z,7.60
2019-04-04T17:52:59.383Z,6.90
2019-04-04T17:55:28.665Z,6.17
2019-04-04T17:57:57.937Z,7.05
2019-04-04T18:00:27.891Z,6.37
2019-04-04T18:02:56.983Z,6.28
2019-04-04T18:05:26.182Z,6.58
2019-04-04T18:07:58.332Z,6.87
2019-04-04T18:10:32.620Z,6.90
2019-04-04T18:13:01.879Z,6.05
2019-04-04T18:15:30.977Z,6.33
2019-04-04T18:18:00.154Z,6.37
2019-04-04T18:20:30.189Z,6.37
2019-04-04T18:23:01.058Z,6.08
2019-04-04T18:25:36.151Z,5.90
2019-04-04T18:28:05.203Z,5.58
2019-04-04T18:30:34.430Z,6.90
2019-04-04T18:33:03.754Z,5.08
2019-04-04T18:35:32.852Z,5.40
2019-04-04T18:40:55.329Z,5.62
2019-04-04T18:43:24.315Z,6.35
2019-04-04T18:45:54.533Z,5.78
2019-04-04T18:48:23.711Z,5.58
2019-04-04T18:50:53.123Z,4.80
2019-04-04T18:53:23.769Z,5.35
2019-04-04T18:55:53.154Z,5.15
2019-04-04T18:58:22.338Z,5.08
2019-04-04T19:00:51.353Z,5.80
2019-04-04T19:03:20.460Z,5.53
2019-04-04T19:05:49.520Z,5.72
2019-04-04T19:08:18.409Z,5.78
2019-04-04T19:10:47.611Z,5.33
2019-04-04T19:13:16.860Z,5.37
2019-04-04T19:15:46.013Z,5.53
2019-04-04T19:18:15.412Z,6.00
2019-04-04T19:20:44.292Z,5.30
2019-04-04T19:23:13.292Z,5.78
2019-04-04T19:25:42.403Z,5.67
2019-04-04T19:28:11.592Z,6.00
2019-04-04T19:30:40.729Z,5.75
2019-04-04T19:33:10.113Z,5.90
2019-04-04T19:35:39.430Z,6.37
2019-04-04T19:38:09.374Z,6.78
2019-04-04T19:40:38.567Z,6.65
2019-04-04T19:43:17.432Z,6.00
2019-04-04T19:45:38.340Z,6.70
2019-04-04T19:48:07.536Z,5.65
2019-04-04T19:50:39.181Z,6.20
2019-04-04T19:53:08.378Z,7.12
2019-04-04T19:55:37.381Z,6.60
2019-04-04T19:58:06.520Z,7.92
2019-04-04T20:00:35.409Z,7.20
2019-04-04T20:03:04.780Z,6.83
2019-04-04T20:05:33.873Z,8.50
2019-04-04T20:08:02.973Z,8.00
2019-04-04T20:10:32.152Z,7.87
2019-04-04T20:13:01.353Z,6.72
2019-04-04T20:15:30.354Z,6.42
2019-04-04T20:17:59.653Z,6.28
2019-04-04T20:20:28.625Z,7.55
2019-04-04T20:22:57.832Z,6.72
2019-04-04T20:25:26.912Z,7.22
2019-04-04T20:27:55.932Z,6.87
2019-04-04T20:30:39.330Z,6.80
2019-04-04T20:33:11.645Z,6.72
2019-04-04T20:35:41.068Z,6.12
2019-04-04T20:38:12.117Z,6.65
2019-04-04T20:43:42.694Z,7.12
2019-04-04T20:46:02.810Z,8.05
2019-04-04T20:48:31.912Z,7.50
2019-04-04T20:51:01.113Z,7.10
2019-04-04T20:53:30.193Z,7.67
2019-04-04T20:55:59.196Z,6.70
2019-04-04T20:58:28.333Z,7.08
2019-04-04T21:00:57.528Z,7.65
2019-04-04T21:03:26.792Z,7.47
2019-04-04T21:05:55.860Z,8.85
2019-04-04T21:08:24.872Z,8.40
2019-04-04T21:10:53.873Z,7.25
2019-04-04T21:13:23.053Z,7.22
2019-04-04T21:15:52.386Z,8.33
2019-04-04T21:18:21.346Z,7.58
2019-04-04T21:20:50.452Z,8.83
2019-04-04T21:23:19.531Z,8.08
2019-04-04T21:25:48.426Z,8.80
2019-04-04T21:28:17.633Z,8.13
2019-04-04T21:30:46.844Z,8.33
2019-04-04T21:33:15.933Z,8.03
2019-04-04T21:35:45.133Z,6.95
2019-04-04T21:38:14.312Z,8.18
2019-04-04T21:40:43.407Z,8.78
2019-04-04T21:43:12.483Z,7.75
2019-04-04T21:45:41.609Z,7.10
2019-04-04T21:48:10.613Z,8.15
2019-04-04T21:50:39.913Z,6.83
2019-04-04T21:53:09.089Z,7.30
2019-04-04T21:55:38.193Z,6.70
2019-04-04T21:58:07.393Z,8.05
2019-04-04T22:00:43.919Z,7.60
2019-04-04T22:03:13.153Z,8.18
2019-04-04T22:05:42.259Z,8.23
2019-04-04T22:08:11.357Z,7.95
2019-04-04T22:10:40.540Z,9.20
2019-04-04T22:13:09.532Z,8.45
2019-04-04T22:15:38.648Z,8.78
2019-04-04T22:18:07.844Z,7.35
2019-04-04T22:20:36.971Z,6.87
2019-04-04T22:23:06.237Z,6.72
2019-04-04T22:25:35.340Z,7.42
2019-04-04T22:28:04.430Z,6.97
2019-04-04T22:30:33.410Z,7.97
2019-04-04T22:33:02.512Z,6.50
2019-04-04T22:35:31.487Z,7.20
2019-04-04T22:38:00.603Z,6.60
2019-04-04T22:40:29.903Z,7.25
2019-04-04T22:42:58.993Z,5.87
2019-04-04T22:45:28.001Z,6.08
2019-04-04T22:47:57.093Z,5.92
2019-04-04T22:50:26.172Z,6.22
2019-04-04T22:52:55.264Z,6.00
2019-04-04T22:55:26.438Z,5.35
2019-04-04T22:57:54.997Z,5.08
2019-04-04T23:00:24.094Z,5.10
2019-04-04T23:02:53.292Z,5.15
2019-04-04T23:05:22.387Z,5.35
2019-04-04T23:07:51.487Z,5.58
2019-04-04T23:10:20.664Z,4.58
2019-04-04T23:12:49.786Z,5.50
2019-04-04T23:15:18.859Z,4.28
2019-04-04T23:18:07.437Z,4.17
2019-04-04T23:20:36.522Z,4.60
2019-04-04T23:23:05.518Z,4.78
2019-04-04T23:25:35.750Z,4.55
2019-04-04T23:28:04.720Z,4.90
2019-04-04T23:30:33.836Z,3.90
2019-04-04T23:33:02.917Z,4.85
2019-04-04T23:35:32.017Z,3.80
2019-04-04T23:38:01.009Z,3.87
2019-04-04T23:40:30.189Z,4.03
2019-04-04T23:42:59.192Z,4.35
2019-04-04T23:45:28.292Z,4.70
2019-04-04T23:47:57.797Z,3.83
2019-04-04T23:50:26.893Z,3.85
2019-04-04T23:52:55.988Z,4.20
2019-04-04T23:55:25.382Z,3.92
2019-04-04T23:57:54.300Z,4.10
